Time;durP1;ratioP1;P1;durP2;ratioP2;P2;SDS_P1;SDS_P2;PMS_P1;PMS_P2;Temp;Humidity;BMP_temperature;BMP_pressure;BME280_temperature;BME280_humidity;BME280_pressure;Samples;Min_cycle;Max_cycle;Signal;HPM_P1;HPM_P2
2022/01/26 00:07:48;;;;;;;11.43;5.82;;;;;;;-5.27;64.66;99677.66;4926645;28;20039;-78
2022/01/26 00:10:14;;;;;;;12.40;5.78;;;;;;;-5.40;64.60;99657.47;4933479;28;20583;-80
2022/01/26 00:12:40;;;;;;;13.23;6.40;;;;;;;-5.26;64.45;99687.00;4934710;28;20479;-78
2022/01/26 00:15:06;;;;;;;10.90;5.95;;;;;;;-5.40;65.01;99665.97;4934956;28;20185;-79
2022/01/26 00:17:32;;;;;;;12.95;6.00;;;;;;;-5.28;65.07;99665.75;4922214;28;20073;-78
2022/01/26 00:20:09;;;;;;;14.00;6.55;;;;;;;-5.38;64.80;99645.75;4925749;29;20075;-78
2022/01/26 00:22:53;;;;;;;14.15;6.43;;;;;;;-5.03;64.73;99692.41;4944961;28;20048;-79
2022/01/26 00:28:08;;;;;;;14.13;6.28;;;;;;;-5.03;64.80;99674.66;4931949;29;20056;-78
2022/01/26 00:38:42;;;;;;;16.65;5.78;;;;;;;-5.10;64.84;99652.28;4918489;29;20154;-79
2022/01/26 00:41:16;;;;;;;15.80;6.25;;;;;;;-5.03;64.64;99649.28;4933598;29;20051;-78
2022/01/26 00:43:49;;;;;;;11.75;6.25;;;;;;;-5.11;64.68;99633.66;4951054;28;20044;-78
2022/01/26 00:46:15;;;;;;;14.75;6.32;;;;;;;-4.77;65.24;99668.34;4933959;29;20043;-78
2022/01/26 00:48:43;;;;;;;12.60;6.25;;;;;;;-4.96;64.80;99630.13;4932133;29;20058;-78
2022/01/26 00:51:10;;;;;;;13.27;6.07;;;;;;;-4.73;64.58;99674.44;4918186;29;20036;-78
2022/01/26 00:53:42;;;;;;;14.00;6.38;;;;;;;-4.80;64.72;99647.88;4933566;29;20035;-79
2022/01/26 00:56:08;;;;;;;17.02;7.20;;;;;;;-4.84;64.37;99636.72;4926783;29;20039;-78
2022/01/26 00:58:34;;;;;;;13.82;5.97;;;;;;;-4.65;64.90;99650.31;4931133;28;20051;-78
2022/01/26 01:01:02;;;;;;;13.00;6.22;;;;;;;-4.49;64.47;99667.19;4944800;28;20039;-77
2022/01/26 01:03:30;;;;;;;12.20;6.15;;;;;;;-4.57;64.19;99659.19;4927740;29;20072;-79
2022/01/26 01:06:01;;;;;;;14.32;6.35;;;;;;;-4.69;64.37;99645.88;4931640;28;20134;-81
2022/01/26 01:08:28;;;;;;;13.80;6.85;;;;;;;-4.63;64.38;99647.88;4933700;29;20578;-79
2022/01/26 01:10:55;;;;;;;11.63;6.05;;;;;;;-4.56;64.05;99662.59;4934661;29;20072;-79
2022/01/26 01:13:31;;;;;;;15.23;6.13;;;;;;;-4.60;64.12;99678.47;4929588;29;20126;-79
2022/01/26 01:15:58;;;;;;;12.77;5.70;;;;;;;-4.78;64.10;99650.50;4920420;29;20146;-77
2022/01/26 01:18:39;;;;;;;15.07;6.45;;;;;;;-4.71;64.10;99665.25;4948898;28;20045;-78
2022/01/26 01:22:16;;;;;;;13.00;6.03;;;;;;;-4.75;64.44;99666.75;4918822;29;20059;-78
2022/01/26 01:31:49;;;;;;;14.90;5.95;;;;;;;-4.57;64.31;99650.69;4930162;29;20483;-78
2022/01/26 01:34:17;;;;;;;14.45;6.00;;;;;;;-4.52;64.57;99671.25;4924986;29;20058;-77
2022/01/26 01:36:47;;;;;;;14.98;6.30;;;;;;;-4.53;64.29;99662.75;4929311;29;20071;-79
2022/01/26 01:39:13;;;;;;;16.67;6.65;;;;;;;-4.57;64.45;99654.13;4926515;29;20054;-78
2022/01/26 01:41:42;;;;;;;13.80;6.05;;;;;;;-4.52;64.64;99649.25;4926305;29;20155;-77
2022/01/26 01:44:09;;;;;;;13.70;5.40;;;;;;;-4.43;64.46;99664.09;4896804;29;20404;-78
2022/01/26 01:46:36;;;;;;;13.75;6.47;;;;;;;-4.50;64.41;99639.16;4896961;29;20525;-77
2022/01/26 01:49:04;;;;;;;14.32;6.68;;;;;;;-4.43;64.05;99649.72;4939564;29;20067;-77
2022/01/26 01:51:37;;;;;;;14.13;6.05;;;;;;;-4.49;64.45;99649.41;4925841;29;20566;-77
2022/01/26 01:54:05;;;;;;;13.18;5.93;;;;;;;-4.48;64.33;99642.66;4929635;29;20623;-80
2022/01/26 01:56:31;;;;;;;13.77;5.90;;;;;;;-4.57;64.30;99628.72;4925108;29;20387;-80
2022/01/26 01:58:58;;;;;;;15.13;5.82;;;;;;;-4.48;64.32;99647.72;4929410;29;20044;-78
2022/01/26 02:01:25;;;;;;;12.65;5.80;;;;;;;-4.48;63.89;99653.69;4925747;29;20051;-77
2022/01/26 02:03:51;;;;;;;11.77;5.40;;;;;;;-4.52;63.62;99656.03;4928291;29;20047;-79
2022/01/26 02:06:18;;;;;;;12.70;5.45;;;;;;;-4.56;63.64;99657.53;4928914;29;20040;-78
2022/01/26 02:08:44;;;;;;;16.27;6.50;;;;;;;-4.69;64.31;99644.22;4941697;29;20066;-78
2022/01/26 02:11:12;;;;;;;14.48;6.18;;;;;;;-4.75;63.82;99641.38;4941349;29;20795;-79
2022/01/26 02:14:03;;;;;;;12.85;6.25;;;;;;;-4.67;64.07;99651.06;4925709;29;20123;-79
2022/01/26 02:16:44;;;;;;;12.15;6.05;;;;;;;-4.77;63.87;99647.19;4925952;29;20354;-79
2022/01/26 03:06:53;;;;;;;15.00;6.65;;;;;;;-4.33;64.57;99660.31;4928569;29;20154;-77
2022/01/26 03:09:25;;;;;;;12.60;5.65;;;;;;;-4.40;63.83;99647.31;4926968;29;20102;-80
2022/01/26 03:11:51;;;;;;;19.83;7.07;;;;;;;-4.19;64.22;99673.69;4928396;29;20058;-78
2022/01/26 03:14:38;;;;;;;15.52;6.60;;;;;;;-4.27;64.05;99647.91;4928056;29;20048;-80
2022/01/26 03:18:04;;;;;;;16.58;6.20;;;;;;;-4.27;64.03;99636.06;4924503;29;20040;-80
2022/01/26 03:19:51;;;;;;;16.23;6.00;;;;;;;-4.05;64.59;99659.13;4908095;29;20056;-80
2022/01/26 03:35:30;;;;;;;12.85;6.18;;;;;;;-3.77;63.92;99674.00;4927003;29;19926;-78
2022/01/26 03:37:58;;;;;;;15.90;6.55;;;;;;;-3.89;64.17;99643.78;4922654;29;20046;-78
2022/01/26 03:40:33;;;;;;;14.48;6.20;;;;;;;-3.72;63.90;99675.09;4943325;29;20495;-80
2022/01/26 03:42:59;;;;;;;13.43;6.20;;;;;;;-4.09;63.80;99597.09;4939547;29;20087;-81
2022/01/26 03:45:26;;;;;;;16.10;6.40;;;;;;;-3.82;63.88;99648.34;4940717;29;20126;-79
2022/01/26 03:47:54;;;;;;;10.23;5.78;;;;;;;-3.56;64.17;99668.16;4935555;29;20494;-80
2022/01/26 03:50:24;;;;;;;13.43;6.15;;;;;;;-3.58;63.69;99667.19;4942626;29;20067;-81
2022/01/26 03:52:50;;;;;;;14.10;6.38;;;;;;;-3.66;64.16;99649.06;4932019;29;20044;-80
2022/01/26 03:55:16;;;;;;;16.27;6.18;;;;;;;-3.49;64.24;99665.09;4926549;29;20043;-78
2022/01/26 03:57:42;;;;;;;13.10;6.10;;;;;;;-3.45;64.00;99673.72;4945782;29;20047;-78
2022/01/26 04:00:08;;;;;;;16.33;6.55;;;;;;;-3.65;63.06;99664.41;4930106;29;20039;-78
2022/01/26 04:02:38;;;;;;;16.00;6.75;;;;;;;-3.63;63.51;99672.94;4946685;29;20676;-79
2022/01/26 04:05:09;;;;;;;13.32;6.75;;;;;;;-3.71;64.10;99648.84;4946128;29;20063;-79
2022/01/26 04:07:34;;;;;;;13.43;6.18;;;;;;;-3.57;63.80;99662.19;4931549;29;20111;-78
2022/01/26 04:10:21;;;;;;;13.13;6.03;;;;;;;-3.58;63.92;99665.56;4927248;29;20046;-76
2022/01/26 04:12:46;;;;;;;11.63;5.80;;;;;;;-3.56;63.66;99663.94;4929768;29;20105;-78
2022/01/26 04:15:24;;;;;;;15.52;6.78;;;;;;;-3.61;63.82;99662.84;4932151;29;20088;-79
2022/01/26 04:17:49;;;;;;;13.68;6.20;;;;;;;-3.56;63.93;99655.44;4927927;29;20079;-77
2022/01/26 04:20:16;;;;;;;17.05;7.05;;;;;;;-3.40;64.21;99680.75;4941099;28;20043;-78
2022/01/26 04:22:52;;;;;;;13.95;6.60;;;;;;;-3.49;63.58;99660.00;4939107;28;20049;-80
2022/01/26 04:25:22;;;;;;;16.23;6.40;;;;;;;-3.49;64.02;99637.09;4951116;28;20051;-78
2022/01/26 04:27:51;;;;;;;13.85;6.75;;;;;;;-3.36;63.94;99661.44;4939548;28;20047;-78
2022/01/26 04:30:17;;;;;;;18.02;7.53;;;;;;;-3.20;64.10;99671.47;4921544;28;20066;-78
2022/01/26 04:32:43;;;;;;;17.77;7.65;;;;;;;-3.26;63.93;99667.81;4928257;28;20031;-77
2022/01/26 04:35:10;;;;;;;16.27;7.05;;;;;;;-3.46;64.39;99628.72;4936234;28;20090;-79
2022/01/26 04:40:10;;;;;;;15.65;7.65;;;;;;;-3.13;63.77;99667.53;4934586;28;20087;-80
2022/01/26 04:42:53;;;;;;;14.50;6.80;;;;;;;-3.24;63.72;99650.94;4939696;28;20526;-80
2022/01/26 04:45:22;;;;;;;20.13;7.50;;;;;;;-3.17;63.71;99678.38;4938144;28;20064;-84
2022/01/26 04:47:49;;;;;;;16.42;7.68;;;;;;;-3.20;63.57;99668.09;4919865;28;20040;-77
2022/01/26 04:50:15;;;;;;;17.63;7.85;;;;;;;-3.27;63.87;99656.72;4916224;28;20045;-76
2022/01/26 04:52:45;;;;;;;16.45;7.38;;;;;;;-3.23;63.83;99662.84;4940623;29;20070;-75
2022/01/26 04:55:11;;;;;;;17.20;7.00;;;;;;;-3.25;63.51;99665.31;4941375;29;20043;-76
2022/01/26 04:57:37;;;;;;;17.67;7.50;;;;;;;-3.35;63.69;99637.72;4923133;29;20043;-76
2022/01/26 05:00:05;;;;;;;16.27;6.97;;;;;;;-3.26;63.63;99653.38;4942586;28;20522;-76
2022/01/26 05:02:31;;;;;;;15.18;7.55;;;;;;;-3.35;63.52;99630.09;4928597;28;20053;-77
2022/01/26 05:04:57;;;;;;;18.92;7.45;;;;;;;-3.16;63.72;99664.00;4936068;28;20047;-77
2022/01/26 05:07:22;;;;;;;18.95;7.15;;;;;;;-3.15;63.70;99668.28;4950767;28;20091;-76
2022/01/26 05:09:48;;;;;;;17.90;7.72;;;;;;;-3.38;63.82;99623.16;4931189;28;20555;-77
2022/01/26 05:12:15;;;;;;;19.73;7.45;;;;;;;-3.16;63.75;99654.66;4950625;28;20073;-76
2022/01/26 05:14:43;;;;;;;17.95;7.97;;;;;;;-3.08;64.54;99663.53;4937540;28;20049;-78
2022/01/26 05:17:09;;;;;;;15.73;7.28;;;;;;;-3.10;64.29;99642.22;4934977;28;20043;-75
2022/01/26 05:19:35;;;;;;;18.58;7.38;;;;;;;-3.13;64.02;99636.97;4929808;28;20062;-76
2022/01/26 05:22:01;;;;;;;18.75;7.43;;;;;;;-3.19;63.79;99632.50;4952503;28;20046;-77
2022/01/26 05:24:26;;;;;;;18.35;7.70;;;;;;;-3.16;64.18;99629.19;4931667;28;21534;-76
2022/01/26 05:26:52;;;;;;;18.38;7.30;;;;;;;-3.02;64.46;99645.09;4950919;28;20093;-78
2022/01/26 05:29:20;;;;;;;16.02;7.32;;;;;;;-3.03;63.99;99641.69;4949553;28;20051;-78
2022/01/26 05:31:46;;;;;;;16.42;7.07;;;;;;;-2.95;64.33;99643.66;4949181;28;20171;-77
2022/01/26 05:34:12;;;;;;;16.38;7.22;;;;;;;-3.10;64.17;99614.19;4934310;28;20133;-76
2022/01/26 05:36:38;;;;;;;20.67;8.10;;;;;;;-2.87;64.26;99653.38;4935672;28;20042;-77
2022/01/26 05:39:05;;;;;;;18.35;7.85;;;;;;;-2.96;64.10;99632.63;4936478;28;20050;-76
2022/01/26 05:41:30;;;;;;;16.35;7.57;;;;;;;-2.76;63.93;99652.97;4942936;28;20043;-78
2022/01/26 05:43:56;;;;;;;22.17;7.93;;;;;;;-2.76;64.00;99643.63;4949922;28;20074;-76
2022/01/26 05:49:16;;;;;;;19.90;8.95;;;;;;;-2.61;64.27;99652.75;4926887;28;20062;-76
2022/01/26 05:51:45;;;;;;;18.20;8.18;;;;;;;-2.65;64.21;99636.47;4946602;28;20126;-76
2022/01/26 05:54:17;;;;;;;20.38;9.27;;;;;;;-2.59;63.82;99649.44;4936174;28;20407;-78
2022/01/26 05:56:46;;;;;;;20.23;8.93;;;;;;;-2.42;63.90;99669.66;4947891;28;20039;-77
2022/01/26 05:59:19;;;;;;;17.75;7.85;;;;;;;-2.36;63.91;99666.50;4947740;28;20491;-78
2022/01/26 06:01:45;;;;;;;18.27;8.75;;;;;;;-2.50;64.02;99643.84;4921033;28;20051;-76
2022/01/26 06:04:11;;;;;;;21.63;8.60;;;;;;;-2.25;64.04;99672.91;4935430;28;20117;-77
2022/01/26 06:06:37;;;;;;;21.50;9.00;;;;;;;-2.24;63.88;99661.91;4934881;28;20034;-77
2022/01/26 06:09:17;;;;;;;19.33;9.13;;;;;;;-2.20;63.93;99667.97;4950704;28;20051;-78
2022/01/26 06:11:50;;;;;;;22.38;9.02;;;;;;;-3.28;63.66;99488.69;4936652;28;20507;-78
2022/01/26 06:15:41;;;;;;;22.00;9.48;;;;;;;-2.09;63.67;99660.75;4937629;28;20407;-78
2022/01/26 06:18:41;;;;;;;22.33;9.25;;;;;;;-2.56;63.91;99590.13;4931084;28;20538;-77
2022/01/26 06:21:34;;;;;;;22.23;9.07;;;;;;;-2.03;63.76;99655.91;4933932;28;20261;-80
2022/01/26 06:24:00;;;;;;;17.35;8.40;;;;;;;-2.82;63.73;99523.69;4936194;28;20130;-78
2022/01/26 06:26:45;;;;;;;19.63;9.38;;;;;;;-3.28;63.50;99470.88;4946284;28;20519;-77
2022/01/26 06:29:45;;;;;;;19.98;9.07;;;;;;;-2.85;63.31;99520.13;4932101;28;20061;-78
2022/01/26 06:33:03;;;;;;;20.48;9.27;;;;;;;-3.38;63.83;99442.50;4936611;28;20783;-79
2022/01/26 06:35:49;;;;;;;20.08;9.23;;;;;;;-2.06;63.65;99660.88;4867867;29;20120;-78
2022/01/26 06:38:25;;;;;;;;;;;;;;;;;;;;;
2022/01/26 06:41:01;;;;;;;21.33;9.65;;;;;;;-1.94;64.04;99675.81;4948215;28;20042;-78
2022/01/26 06:43:46;;;;;;;20.42;9.63;;;;;;;-1.98;63.60;99641.66;4906340;28;20419;-79
2022/01/26 06:46:28;;;;;;;21.38;9.82;;;;;;;-1.84;63.20;99676.22;4937524;28;20454;-78
2022/01/26 06:51:54;;;;;;;20.75;9.25;;;;;;;-3.26;63.18;99474.34;4937668;28;20038;-79
2022/01/26 06:54:41;;;;;;;20.23;10.20;;;;;;;-3.35;63.40;99446.84;4939686;28;20467;-78
2022/01/26 06:57:07;;;;;;;24.15;10.57;;;;;;;-2.00;64.03;99673.91;4955283;28;20451;-80
2022/01/26 06:59:33;;;;;;;21.30;10.18;;;;;;;-2.62;63.47;99577.13;4940160;28;20046;-79
2022/01/26 07:02:00;;;;;;;25.48;11.15;;;;;;;-2.49;63.82;99599.72;4917617;28;20058;-80
2022/01/26 07:04:28;;;;;;;26.60;11.40;;;;;;;-3.51;63.57;99433.47;4955581;28;20501;-80
2022/01/26 07:06:54;;;;;;;23.38;10.50;;;;;;;-2.58;64.00;99609.56;4936369;28;20597;-78
2022/01/26 07:09:21;;;;;;;22.88;10.75;;;;;;;-2.20;63.55;99663.78;4932489;28;20510;-78
2022/01/26 07:11:49;;;;;;;27.00;10.32;;;;;;;-2.34;63.87;99622.41;4939546;28;20031;-78
2022/01/26 07:19:53;;;;;;;22.80;8.70;;;;;;;-2.07;63.85;99657.47;4927936;29;20055;-79
2022/01/26 07:22:28;;;;;;;22.17;8.40;;;;;;;-1.94;63.82;99694.56;4917230;29;20070;-79
2022/01/26 07:25:27;;;;;;;21.92;9.73;;;;;;;-2.31;63.01;99654.81;4943840;28;20051;-78
2022/01/26 07:27:58;;;;;;;26.15;10.18;;;;;;;-2.32;63.78;99659.03;4929005;29;20440;-78
2022/01/26 07:31:00;;;;;;;25.20;9.13;;;;;;;-1.97;64.18;99686.78;4916134;29;20091;-80
2022/01/26 07:33:26;;;;;;;23.60;10.20;;;;;;;-2.10;64.09;99654.81;4916062;29;20525;-78
2022/01/26 07:36:08;;;;;;;24.40;9.75;;;;;;;-2.40;63.87;99595.81;4927729;29;20047;-76
2022/01/26 07:41:53;;;;;;;24.02;9.23;;;;;;;-1.85;62.93;99702.56;4912479;29;20051;-77
2022/01/26 07:44:19;;;;;;;25.60;10.07;;;;;;;-3.10;63.64;99479.28;4910699;29;20044;-78
2022/01/26 07:47:23;;;;;;;21.42;8.95;;;;;;;-1.83;64.03;99695.84;4931436;29;20039;-79
2022/01/26 07:49:55;;;;;;;22.67;8.15;;;;;;;-2.91;63.95;99530.94;4915656;29;20052;-78
2022/01/26 07:52:38;;;;;;;21.33;8.90;;;;;;;-1.99;64.07;99662.88;4942460;28;20539;-77
2022/01/26 07:58:28;;;;;;;24.25;10.38;;;;;;;-1.63;63.56;99722.94;4927227;29;20081;-78
2022/01/26 08:01:24;;;;;;;24.77;9.40;;;;;;;-2.64;63.46;99543.91;4922409;29;20051;-77
2022/01/26 08:03:52;;;;;;;23.85;10.68;;;;;;;-2.32;64.24;99589.38;4929828;29;20067;-78
2022/01/26 08:06:41;;;;;;;30.55;11.70;;;;;;;-2.76;63.51;99506.09;4945707;29;20050;-79
2022/01/26 08:09:18;;;;;;;32.90;12.10;;;;;;;-1.67;63.86;99693.91;4937683;28;20066;-79
2022/01/26 08:11:44;;;;;;;30.00;12.40;;;;;;;-1.53;64.52;99709.72;4929753;29;20301;-76
2022/01/26 08:14:10;;;;;;;31.98;11.88;;;;;;;-1.48;64.10;99722.69;4926665;29;20047;-77
2022/01/26 08:16:36;;;;;;;31.40;12.30;;;;;;;-1.59;64.16;99695.03;4926853;29;20064;-77
2022/01/26 08:19:02;;;;;;;28.95;11.50;;;;;;;-1.61;64.07;99667.75;4929174;29;20098;-79
2022/01/26 08:21:28;;;;;;;26.77;11.10;;;;;;;-1.39;64.27;99697.47;4931839;29;20052;-78
2022/01/26 08:24:02;;;;;;;33.10;12.35;;;;;;;-1.33;64.26;99691.75;4922513;29;20040;-78
2022/01/26 08:26:40;;;;;;;22.40;9.63;;;;;;;-1.24;63.78;99713.41;4916513;29;20051;-78
2022/01/26 08:29:13;;;;;;;23.80;9.98;;;;;;;-1.31;63.90;99691.00;4926630;29;20092;-77
2022/01/26 08:31:38;;;;;;;25.27;10.35;;;;;;;-1.08;63.93;99713.97;4926728;29;20048;-78
2022/01/26 08:34:07;;;;;;;25.55;10.40;;;;;;;-1.01;64.19;99718.50;4932023;29;20119;-77
2022/01/26 08:37:03;;;;;;;22.92;10.48;;;;;;;-1.65;64.22;99613.13;4931780;29;20411;-79
2022/01/26 08:39:36;;;;;;;26.65;10.95;;;;;;;-0.88;64.17;99713.81;4939546;29;20047;-78
2022/01/26 08:42:05;;;;;;;28.60;10.43;;;;;;;-1.00;63.56;99710.00;4947271;28;20495;-77
2022/01/26 08:44:32;;;;;;;25.48;11.45;;;;;;;-0.94;63.35;99740.88;4934640;29;21172;-76
2022/01/26 08:47:03;;;;;;;23.17;10.02;;;;;;;-2.08;63.79;99520.59;4945005;29;20128;-79
2022/01/26 08:49:29;;;;;;;27.08;12.23;;;;;;;-1.70;63.61;99592.56;4936694;29;20131;-79
2022/01/26 08:55:48;;;;;;;35.10;13.38;;;;;;;-1.81;63.51;99522.44;4935289;29;20137;-82
2022/01/26 09:01:33;;;;;;;23.83;9.80;;;;;;;-1.22;62.96;99607.06;4928978;29;20398;-85
2022/01/26 09:04:36;;;;;;;20.83;9.75;;;;;;;-1.10;63.74;99615.97;4928216;29;20562;-85
2022/01/26 09:07:22;;;;;;;21.33;9.50;;;;;;;-1.04;64.01;99628.09;4922679;29;20486;-83
2022/01/26 09:09:48;;;;;;;17.60;8.52;;;;;;;-0.66;63.59;99660.06;4936868;29;20051;-81
2022/01/26 09:12:17;;;;;;;21.67;10.05;;;;;;;-0.98;63.23;99625.75;4946320;28;20134;-80
2022/01/26 09:14:47;;;;;;;19.73;8.88;;;;;;;-0.18;63.26;99738.38;4951053;28;20419;-80
2022/01/26 09:17:14;;;;;;;18.77;8.43;;;;;;;-0.11;62.84;99739.47;4937134;29;20054;-83
2022/01/26 09:20:10;;;;;;;20.08;8.48;;;;;;;-0.04;63.27;99726.06;4934789;28;20126;-79
2022/01/26 09:22:38;;;;;;;18.48;7.95;;;;;;;-0.32;63.01;99691.03;4931057;28;20076;-79
2022/01/26 09:29:09;;;;;;;16.98;7.68;;;;;;;0.09;63.07;99752.06;4961633;28;20039;-81
2022/01/26 09:32:27;;;;;;;20.30;8.63;;;;;;;-0.93;63.14;99602.09;4908941;29;20036;-80
2022/01/26 09:34:53;;;;;;;17.48;7.65;;;;;;;0.12;63.48;99755.59;4943948;29;20584;-80
2022/01/26 09:37:19;;;;;;;17.80;8.35;;;;;;;0.07;62.90;99753.69;4919114;29;20051;-81
2022/01/26 09:39:47;;;;;;;19.00;8.35;;;;;;;-0.21;63.10;99714.41;4932663;29;20043;-79
2022/01/26 09:42:14;;;;;;;19.23;7.65;;;;;;;-0.08;63.00;99723.34;4928857;29;20049;-77
2022/01/26 09:44:40;;;;;;;19.08;8.02;;;;;;;0.01;62.44;99728.75;4917730;29;20078;-77
2022/01/26 09:47:08;;;;;;;19.08;8.25;;;;;;;0.12;62.68;99744.47;4933909;28;20656;-81
2022/01/26 09:49:35;;;;;;;20.92;8.57;;;;;;;0.11;63.00;99735.06;4929729;29;20125;-77
2022/01/26 09:52:13;;;;;;;17.60;7.95;;;;;;;0.23;62.79;99744.81;4922478;29;20397;-78
2022/01/26 09:54:41;;;;;;;18.85;7.82;;;;;;;0.20;62.36;99730.22;4927292;29;20039;-78
2022/01/26 09:57:08;;;;;;;19.73;7.75;;;;;;;0.34;63.30;99735.78;4920264;29;20094;-79
2022/01/26 09:59:36;;;;;;;17.20;7.22;;;;;;;0.31;63.31;99710.09;4960675;29;20039;-80
2022/01/26 10:02:03;;;;;;;15.90;8.23;;;;;;;0.35;62.16;99698.25;4940594;29;20118;-82
2022/01/26 10:04:37;;;;;;;16.23;7.78;;;;;;;0.68;63.24;99743.66;4951847;29;20054;-82
2022/01/26 10:09:58;;;;;;;16.75;7.85;;;;;;;0.64;62.42;99749.50;4965373;28;20051;-79
2022/01/26 10:18:20;;;;;;;17.65;7.95;;;;;;;0.08;62.23;99711.94;4912735;29;20044;-82
2022/01/26 10:20:57;;;;;;;17.80;7.75;;;;;;;0.00;62.24;99711.69;4897087;29;20504;-79
2022/01/26 10:23:40;;;;;;;18.40;7.32;;;;;;;0.17;62.34;99745.47;4912307;28;20455;-79
2022/01/26 10:26:15;;;;;;;18.77;8.43;;;;;;;0.00;62.55;99711.69;4936683;28;20120;-81
2022/01/26 10:28:50;;;;;;;20.08;7.78;;;;;;;0.18;62.05;99738.69;4954587;28;20043;-80
2022/01/26 10:31:25;;;;;;;17.50;7.68;;;;;;;0.11;61.66;99755.53;4945064;28;20106;-77
2022/01/26 10:34:06;;;;;;;19.17;8.27;;;;;;;0.12;62.08;99767.50;4936406;28;20044;-80
2022/01/26 10:36:56;;;;;;;17.92;8.40;;;;;;;-0.20;62.41;99716.16;4922526;28;20043;-79
2022/01/26 10:40:11;;;;;;;21.42;8.27;;;;;;;-0.69;61.60;99633.56;4930386;28;20446;-78
2022/01/26 10:43:06;;;;;;;18.05;7.90;;;;;;;-0.44;62.15;99667.63;4925435;28;20100;-79
2022/01/26 10:52:19;;;;;;;19.95;7.68;;;;;;;0.29;61.65;99756.13;4932565;28;20102;-80
2022/01/26 10:54:55;;;;;;;18.67;7.82;;;;;;;-0.87;62.31;99545.22;4919932;28;20046;-82
2022/01/26 10:57:25;;;;;;;16.58;7.70;;;;;;;-0.35;62.07;99609.97;4937479;28;20685;-78
2022/01/26 10:59:52;;;;;;;22.67;8.10;;;;;;;-0.26;62.33;99663.09;4939009;28;20047;-77
2022/01/26 11:02:33;;;;;;;15.27;7.88;;;;;;;0.43;62.26;99742.88;4937615;28;20102;-78
2022/01/26 11:04:59;;;;;;;15.32;7.85;;;;;;;-0.21;62.32;99648.75;4944800;28;20047;-76
2022/01/26 11:07:42;;;;;;;19.17;8.07;;;;;;;0.01;62.58;99707.44;4945891;28;20052;-78
2022/01/26 11:10:12;;;;;;;17.65;8.07;;;;;;;0.31;62.20;99740.81;4945470;28;20047;-78
2022/01/26 11:12:42;;;;;;;17.88;8.07;;;;;;;0.32;62.07;99739.13;4950240;28;20145;-78
2022/01/26 11:15:11;;;;;;;16.98;6.90;;;;;;;-0.01;62.35;99704.84;4947338;28;20070;-78
2022/01/26 11:17:42;;;;;;;15.65;6.57;;;;;;;0.27;62.51;99749.22;5000345;23;20148;-81
2022/01/26 11:20:29;;;;;;;13.07;7.07;;;;;;;0.27;62.38;99744.09;4994441;28;20120;-80
2022/01/26 11:22:57;;;;;;;14.27;6.82;;;;;;;0.24;62.95;99739.75;5010311;28;20135;-80
2022/01/26 11:25:29;;;;;;;14.65;7.00;;;;;;;0.25;62.65;99750.84;5011405;28;20041;-79
2022/01/26 11:27:56;;;;;;;18.40;5.38;;;;;;;0.08;62.74;99710.22;4994266;28;20037;-80
2022/01/26 11:30:33;;;;;;;11.95;5.70;;;;;;;0.31;62.02;99748.50;4996436;28;20045;-80
2022/01/26 11:33:04;;;;;;;17.50;6.50;;;;;;;0.20;62.02;99725.13;5010947;28;20053;-79
2022/01/26 11:35:36;;;;;;;11.73;5.55;;;;;;;-0.11;61.90;99710.47;4979020;28;20099;-77
2022/01/26 11:38:15;;;;;;;10.63;5.55;;;;;;;0.10;62.41;99748.69;4994962;28;20042;-79
2022/01/26 11:47:24;;;;;;;7.68;4.10;;;;;;;-0.09;61.75;99747.19;5012210;28;20420;-79
2022/01/26 11:50:00;;;;;;;9.10;4.85;;;;;;;-0.03;62.70;99760.22;5027792;28;20041;-79
2022/01/26 11:52:35;;;;;;;8.05;4.45;;;;;;;-0.25;62.17;99715.13;5010780;28;20065;-80
2022/01/26 11:55:42;;;;;;;8.40;4.53;;;;;;;-0.84;62.55;99616.00;5010480;28;20037;-79
2022/01/26 11:58:50;;;;;;;7.90;4.75;;;;;;;-0.45;62.51;99674.41;5009797;28;20103;-81
2022/01/26 12:02:20;;;;;;;7.30;4.28;;;;;;;-0.97;62.87;99577.25;5010155;28;20095;-80
2022/01/26 12:04:47;;;;;;;8.13;3.95;;;;;;;0.16;62.58;99753.13;5011451;28;20045;-77
2022/01/26 12:07:24;;;;;;;9.85;4.18;;;;;;;-0.01;61.86;99761.13;4997029;28;20034;-77
2022/01/26 12:10:06;;;;;;;7.90;4.22;;;;;;;-0.52;62.46;99693.78;4995864;28;20034;-81
2022/01/26 12:12:38;;;;;;;7.32;4.25;;;;;;;0.03;62.39;99778.28;4984312;28;20042;-77
2022/01/26 12:15:12;;;;;;;9.40;4.57;;;;;;;-0.61;62.09;99698.56;4982282;28;20068;-79
2022/01/26 12:18:00;;;;;;;8.90;4.38;;;;;;;-0.17;62.13;99749.50;5016887;28;20417;-78
2022/01/26 12:39:10;;;;;;;16.00;6.10;;;;;;;-0.56;62.59;99724.31;5015809;28;20046;-81
2022/01/26 12:41:45;;;;;;;14.32;6.60;;;;;;;-0.26;62.76;99770.53;5002495;28;20350;-80
2022/01/26 12:44:12;;;;;;;18.75;7.00;;;;;;;-0.55;62.20;99726.06;5018738;28;20046;-79
2022/01/26 12:46:42;;;;;;;12.50;6.57;;;;;;;-0.73;62.81;99688.78;4984125;28;20038;-80
2022/01/26 12:49:35;;;;;;;12.27;5.90;;;;;;;-1.39;63.07;99592.81;5017350;28;20069;-81
2022/01/26 12:52:10;;;;;;;10.25;5.15;;;;;;;-0.66;62.58;99683.09;5015541;28;20038;-79
2022/01/26 12:54:46;;;;;;;10.82;5.32;;;;;;;-0.64;63.41;99685.69;4998101;28;20042;-81
2022/01/26 12:57:21;;;;;;;11.43;5.55;;;;;;;-1.44;63.11;99548.41;5016184;28;20069;-78
2022/01/26 12:59:47;;;;;;;14.35;5.68;;;;;;;-0.28;63.22;99740.59;5016092;28;20491;-81
2022/01/26 13:02:14;;;;;;;9.85;5.05;;;;;;;-0.07;63.36;99779.69;4983894;28;20125;-78
2022/01/26 13:04:39;;;;;;;10.57;5.00;;;;;;;-0.94;61.15;99673.59;5017271;28;20041;-79
2022/01/26 13:07:05;;;;;;;12.40;5.35;;;;;;;-1.08;62.73;99683.31;5015619;28;20527;-80
2022/01/26 13:09:39;;;;;;;12.70;5.72;;;;;;;-1.25;62.98;99655.47;4998613;28;20041;-78
2022/01/26 13:12:05;;;;;;;11.30;5.03;;;;;;;-0.61;62.58;99778.69;5015105;28;20038;-80
2022/01/26 13:14:55;;;;;;;8.80;5.43;;;;;;;-0.47;62.65;99791.09;4997310;28;20041;-78
2022/01/26 13:17:39;;;;;;;11.35;5.55;;;;;;;-0.81;62.98;99736.22;5013524;28;20104;-80
2022/01/26 13:26:10;;;;;;;11.52;5.25;;;;;;;-1.01;62.94;99746.59;4979538;28;20149;-79
2022/01/26 13:29:10;;;;;;;9.93;5.63;;;;;;;-0.72;63.83;99754.41;4997877;28;20042;-80
2022/01/26 13:37:34;;;;;;;13.38;5.93;;;;;;;-0.69;63.52;99728.97;4997592;28;20033;-77
2022/01/26 13:50:47;;;;;;;11.65;6.00;;;;;;;-0.23;63.91;99805.56;5015308;28;20037;-79
2022/01/26 13:53:21;;;;;;;9.15;5.10;;;;;;;-0.52;63.04;99793.50;5013738;28;20501;-79
2022/01/26 14:01:00;;;;;;;14.05;6.28;;;;;;;-1.16;63.78;99689.81;4981492;28;20038;-79
2022/01/26 14:03:36;;;;;;;15.30;6.53;;;;;;;-0.37;64.32;99817.84;5018435;28;20631;-80
2022/01/26 14:06:42;;;;;;;14.73;5.80;;;;;;;-1.01;64.20;99702.28;5015794;28;20123;-80
2022/01/26 14:09:12;;;;;;;10.27;5.38;;;;;;;-1.23;64.47;99673.41;5014005;28;20497;-80
2022/01/26 14:11:38;;;;;;;9.52;5.15;;;;;;;-0.96;64.65;99703.31;5012425;28;20042;-78
2022/01/26 14:14:08;;;;;;;14.50;5.28;;;;;;;-0.39;64.29;99805.03;5011723;28;20048;-79
2022/01/26 14:16:45;;;;;;;10.68;5.60;;;;;;;-0.44;64.35;99795.47;4979453;28;20034;-79
2022/01/26 14:27:43;;;;;;;;;;;;;;;-0.23;64.02;99826.91;4956820;28;20445;-80
2022/01/26 14:30:33;;;;;;;14.38;6.75;;;;;;;-0.23;64.91;99829.47;5005443;28;20035;-81
2022/01/26 14:54:42;;;;;;;10.48;5.20;;;;;;;-0.31;64.08;99816.38;5011296;28;20064;-81
2022/01/26 15:00:34;;;;;;;8.95;4.53;;;;;;;-0.42;64.69;99807.47;5013268;28;20045;-81
2022/01/26 15:41:36;;;;;;;5.32;3.15;;;;;;;-1.04;64.51;99741.38;4993970;28;20045;-77
2022/01/26 15:50:12;;;;;;;5.10;2.72;;;;;;;-0.68;65.34;99838.06;5010868;28;20037;-78
2022/01/26 16:06:57;;;;;;;9.77;4.30;;;;;;;-0.50;65.24;99852.34;4991971;28;20053;-79
2022/01/26 16:19:38;;;;;;;11.40;3.85;;;;;;;-0.38;65.04;99865.59;5010185;28;20053;-80
2022/01/26 16:21:06;;;;;;;6.75;3.53;;;;;;;-0.35;64.62;99872.50;5008588;28;20053;-78
2022/01/26 17:24:53;;;;;;;7.05;3.80;;;;;;;-1.46;65.12;99721.91;5013274;28;20042;-79
2022/01/26 17:48:29;;;;;;;10.23;5.07;;;;;;;-1.24;64.69;99784.91;5012811;28;20103;-77
2022/01/26 18:05:02;;;;;;;9.15;4.25;;;;;;;-1.35;64.81;99750.41;5014958;28;20061;-81
2022/01/26 18:14:05;;;;;;;9.40;4.25;;;;;;;-1.03;64.57;99819.75;5015359;28;20143;-82
2022/01/26 18:51:21;;;;;;;7.85;3.65;;;;;;;-1.80;64.94;99694.22;5021377;28;20064;-81
2022/01/26 18:53:47;;;;;;;6.47;3.67;;;;;;;-0.58;64.93;99892.97;4996594;28;20112;-81
2022/01/26 18:56:13;;;;;;;6.63;3.28;;;;;;;-0.61;65.10;99896.28;5014054;28;20092;-82
2022/01/26 18:58:41;;;;;;;8.35;3.60;;;;;;;-1.87;64.99;99696.50;4995775;28;20072;-84
2022/01/26 19:01:15;;;;;;;5.25;2.83;;;;;;;-1.23;64.60;99794.31;5000371;28;20034;-84